createdAt,value
2018-09-17T00:00:22.770Z,42.91
2018-09-17T00:01:22.779Z,42.81
2018-09-17T00:02:22.783Z,42.91
2018-09-17T00:03:22.791Z,42.81
2018-09-17T00:04:22.798Z,42.91
2018-09-17T00:05:22.802Z,42.81
2018-09-17T00:06:22.809Z,42.71
2018-09-17T00:07:22.815Z,42.91
2018-09-17T00:08:22.822Z,42.91
2018-09-17T00:09:22.827Z,43.01
2018-09-17T00:10:22.834Z,42.81
2018-09-17T00:11:22.841Z,42.91
2018-09-17T00:12:22.850Z,42.81
2018-09-17T00:13:22.853Z,42.81
2018-09-17T00:14:22.860Z,42.81
2018-09-17T00:15:22.868Z,42.91
2018-09-17T00:16:22.872Z,42.91
2018-09-17T00:17:22.878Z,42.81
2018-09-17T00:18:22.886Z,43.01
2018-09-17T00:19:22.892Z,42.91
2018-09-17T00:20:22.897Z,43.10
2018-09-17T00:21:22.910Z,43.01
2018-09-17T00:22:22.910Z,43.10
2018-09-17T00:23:22.914Z,42.91
2018-09-17T00:24:22.923Z,43.10
2018-09-17T00:25:22.930Z,43.10
2018-09-17T00:26:22.941Z,43.10
2018-09-17T00:27:22.946Z,43.01
2018-09-17T00:28:22.950Z,43.20
2018-09-17T00:29:22.955Z,42.81
2018-09-17T00:30:22.962Z,43.20
2018-09-17T00:31:22.968Z,42.71
2018-09-17T00:32:22.974Z,43.01
2018-09-17T00:33:22.980Z,43.20
2018-09-17T00:34:22.986Z,42.61
2018-09-17T00:35:22.995Z,42.71
2018-09-17T00:36:23.000Z,42.71
2018-09-17T00:37:23.008Z,42.81
2018-09-17T00:38:23.015Z,42.52
2018-09-17T00:39:23.019Z,42.52
2018-09-17T00:40:23.030Z,42.61
2018-09-17T00:41:23.032Z,42.61
2018-09-17T00:42:23.107Z,42.71
2018-09-17T00:43:23.052Z,42.71
2018-09-17T00:44:23.054Z,42.91
2018-09-17T00:45:23.058Z,42.52
2018-09-17T00:46:23.061Z,42.52
2018-09-17T00:47:23.074Z,42.43
2018-09-17T00:48:23.076Z,42.43
2018-09-17T00:49:23.082Z,42.61
2018-09-17T00:50:23.093Z,42.61
2018-09-17T00:51:23.093Z,42.43
2018-09-17T00:52:23.101Z,42.71
2018-09-17T00:53:23.107Z,42.52
2018-09-17T00:54:23.116Z,42.52
2018-09-17T00:55:23.122Z,42.61
2018-09-17T00:56:23.128Z,42.52
2018-09-17T00:57:23.134Z,42.71
2018-09-17T00:58:23.140Z,42.52
2018-09-17T00:59:23.147Z,42.52
2018-09-17T01:00:23.151Z,42.61
2018-09-17T01:01:23.160Z,42.71
2018-09-17T01:02:23.172Z,42.52
2018-09-17T01:03:23.174Z,42.81
2018-09-17T01:04:23.177Z,42.71
2018-09-17T01:05:23.184Z,42.71
2018-09-17T01:06:23.192Z,42.61
2018-09-17T01:07:23.249Z,42.61
2018-09-17T01:08:23.205Z,42.71
2018-09-17T01:09:23.213Z,42.71
2018-09-17T01:10:23.216Z,42.61
2018-09-17T01:11:23.248Z,42.61
2018-09-17T01:12:23.229Z,42.61
2018-09-17T01:13:23.236Z,42.52
2018-09-17T01:14:23.242Z,42.52
2018-09-17T01:15:23.249Z,42.43
2018-09-17T01:16:23.270Z,42.71
2018-09-17T01:17:23.261Z,42.43
2018-09-17T01:18:23.268Z,42.61
2018-09-17T01:19:23.275Z,42.43
2018-09-17T01:20:23.281Z,42.33
2018-09-17T01:21:23.287Z,42.33
2018-09-17T01:22:23.306Z,42.43
2018-09-17T01:23:23.301Z,42.23
2018-09-17T01:24:23.313Z,42.81
2018-09-17T01:25:23.312Z,42.81
2018-09-17T01:26:23.318Z,42.52
2018-09-17T01:27:23.330Z,42.61
2018-09-17T01:28:23.371Z,42.43
2018-09-17T01:29:23.340Z,42.43
2018-09-17T01:30:23.406Z,42.43
2018-09-17T01:31:23.351Z,42.43
2018-09-17T01:32:23.423Z,42.52
2018-09-17T01:33:23.366Z,42.23
2018-09-17T01:34:23.372Z,42.61
2018-09-17T01:35:23.378Z,42.43
2018-09-17T01:36:23.390Z,42.43
2018-09-17T01:37:23.397Z,42.43
2018-09-17T01:38:23.395Z,42.43
2018-09-17T01:39:23.402Z,42.52
2018-09-17T01:40:23.409Z,42.43
2018-09-17T01:41:23.415Z,42.71
2018-09-17T01:42:23.420Z,42.61
2018-09-17T01:43:23.431Z,42.33
2018-09-17T01:44:23.434Z,42.81
2018-09-17T01:45:23.441Z,42.81
2018-09-17T01:46:23.487Z,42.71
2018-09-17T01:47:23.453Z,42.71
2018-09-17T01:48:23.459Z,42.71
2018-09-17T01:49:23.465Z,42.71
2018-09-17T01:50:23.472Z,42.23
2018-09-17T01:51:23.478Z,42.43
2018-09-17T01:52:23.487Z,42.61
2018-09-17T01:53:23.492Z,42.23
2018-09-17T01:54:23.501Z,42.33
2018-09-17T01:55:23.514Z,42.52
2018-09-17T01:56:23.510Z,42.43
2018-09-17T01:57:23.522Z,42.52
2018-09-17T01:58:23.528Z,42.03
2018-09-17T01:59:23.530Z,41.84
2018-09-17T02:00:23.536Z,42.23
2018-09-17T02:01:23.541Z,42.33
2018-09-17T02:02:23.551Z,42.33
2018-09-17T02:03:23.554Z,42.33
2018-09-17T02:04:23.561Z,41.84
2018-09-17T02:05:23.567Z,41.84
2018-09-17T02:06:23.575Z,42.03
2018-09-17T02:07:23.580Z,41.84
2018-09-17T02:08:23.592Z,41.94
2018-09-17T02:09:23.594Z,42.03
2018-09-17T02:10:23.600Z,41.84
2018-09-17T02:11:23.608Z,41.84
2018-09-17T02:12:23.622Z,42.13
2018-09-17T02:13:23.627Z,42.33
2018-09-17T02:14:23.626Z,42.52
2018-09-17T02:15:23.634Z,42.33
2018-09-17T02:16:23.641Z,42.61
2018-09-17T02:17:23.647Z,42.61
2018-09-17T02:18:23.653Z,42.61
2018-09-17T02:19:23.658Z,42.33
2018-09-17T02:20:23.664Z,42.33
2018-09-17T02:21:23.670Z,43.01
2018-09-17T02:22:23.677Z,42.81
2018-09-17T02:23:23.684Z,42.61
2018-09-17T02:24:23.689Z,42.71
2018-09-17T02:25:23.699Z,42.71
2018-09-17T02:26:23.705Z,42.71
2018-09-17T02:27:23.709Z,42.43
2018-09-17T02:28:23.715Z,42.40
2018-09-17T02:29:23.722Z,42.33
2018-09-17T02:30:23.725Z,42.50
2018-09-17T02:31:23.735Z,42.52
2018-09-17T02:32:23.741Z,42.79
2018-09-17T02:33:23.747Z,42.60
2018-09-17T02:34:23.755Z,42.60
2018-09-17T02:35:23.762Z,43.01
2018-09-17T02:36:23.769Z,43.08
2018-09-17T02:37:23.773Z,42.89
2018-09-17T02:38:23.780Z,43.08
2018-09-17T02:39:23.786Z,42.79
2018-09-17T02:40:23.792Z,42.99
2018-09-17T02:41:23.802Z,42.79
2018-09-17T02:42:23.805Z,42.89
2018-09-17T02:43:23.815Z,43.18
2018-09-17T02:44:23.817Z,42.99
2018-09-17T02:45:23.824Z,42.89
2018-09-17T02:46:23.833Z,42.89
2018-09-17T02:47:23.837Z,43.08
2018-09-17T02:48:23.859Z,42.89
2018-09-17T02:49:23.849Z,42.99
2018-09-17T02:50:23.855Z,43.18
2018-09-17T02:51:23.861Z,43.27
2018-09-17T02:52:23.868Z,43.27
2018-09-17T02:53:23.935Z,43.18
2018-09-17T02:54:23.881Z,43.37
2018-09-17T02:55:23.888Z,43.47
2018-09-17T02:56:23.893Z,43.18
2018-09-17T02:57:23.901Z,43.27
2018-09-17T02:58:23.910Z,43.27
2018-09-17T02:59:23.913Z,43.18
2018-09-17T03:00:23.919Z,43.37
2018-09-17T03:01:23.940Z,43.27
2018-09-17T03:02:23.931Z,43.18
2018-09-17T03:03:23.938Z,43.18
2018-09-17T03:04:23.943Z,43.27
2018-09-17T03:05:23.949Z,43.37
2018-09-17T03:06:23.958Z,43.37
2018-09-17T03:07:23.962Z,43.47
2018-09-17T03:08:23.983Z,43.47
2018-09-17T03:09:23.974Z,43.27
2018-09-17T03:10:23.981Z,43.76
2018-09-17T03:11:23.986Z,43.66
2018-09-17T03:12:23.994Z,43.35
2018-09-17T03:13:23.999Z,43.86
2018-09-17T03:14:24.006Z,43.66
2018-09-17T03:15:24.013Z,43.64
2018-09-17T03:16:24.019Z,43.74
2018-09-17T03:17:24.025Z,43.74
2018-09-17T03:18:24.033Z,43.76
2018-09-17T03:19:24.037Z,43.84
2018-09-17T03:20:24.043Z,43.86
2018-09-17T03:21:24.049Z,44.05
2018-09-17T03:22:24.063Z,43.93
2018-09-17T03:23:24.066Z,43.86
2018-09-17T03:24:24.084Z,43.84
2018-09-17T03:25:24.083Z,43.95
2018-09-17T03:26:24.083Z,44.03
2018-09-17T03:27:24.085Z,44.05
2018-09-17T03:28:24.092Z,43.93
2018-09-17T03:29:24.099Z,43.86
2018-09-17T03:30:24.114Z,43.84
2018-09-17T03:31:24.130Z,43.76
2018-09-17T03:32:24.117Z,44.03
2018-09-17T03:33:24.123Z,43.93
2018-09-17T03:34:24.136Z,43.95
2018-09-17T03:35:24.137Z,43.86
2018-09-17T03:36:24.143Z,43.93
2018-09-17T03:37:24.148Z,43.54
2018-09-17T03:38:24.155Z,43.74
2018-09-17T03:39:24.163Z,43.95
2018-09-17T03:40:24.166Z,43.74
2018-09-17T03:41:24.176Z,43.64
2018-09-17T03:42:24.179Z,43.74
2018-09-17T03:43:24.190Z,43.93
2018-09-17T03:44:24.196Z,43.74
2018-09-17T03:45:24.198Z,43.93
2018-09-17T03:46:24.206Z,43.84
2018-09-17T03:47:24.214Z,44.03
2018-09-17T03:48:24.216Z,43.93
2018-09-17T03:49:24.222Z,43.84
2018-09-17T03:50:24.228Z,43.93
2018-09-17T03:51:24.238Z,44.03
2018-09-17T03:52:24.241Z,44.03
2018-09-17T03:53:24.247Z,44.03
2018-09-17T03:54:24.277Z,43.93
2018-09-17T03:55:24.260Z,43.74
2018-09-17T03:56:24.265Z,43.64
2018-09-17T03:57:24.272Z,43.74
2018-09-17T03:58:24.278Z,43.74
2018-09-17T03:59:24.285Z,43.74
2018-09-17T04:00:24.290Z,43.74
2018-09-17T04:01:24.295Z,43.84
2018-09-17T04:02:24.304Z,44.13
2018-09-17T04:03:24.310Z,43.93
2018-09-17T04:04:24.314Z,44.03
2018-09-17T04:05:24.321Z,44.03
2018-09-17T04:06:24.333Z,43.74
2018-09-17T04:07:24.334Z,43.74
2018-09-17T04:08:24.339Z,43.74
2018-09-17T04:09:24.348Z,43.74
2018-09-17T04:10:24.351Z,43.54
2018-09-17T04:11:24.357Z,43.54
2018-09-17T04:12:24.364Z,43.45
2018-09-17T04:13:24.371Z,43.64
2018-09-17T04:14:24.379Z,43.26
2018-09-17T04:15:24.383Z,43.64
2018-09-17T04:16:24.395Z,43.35
2018-09-17T04:17:24.395Z,43.26
2018-09-17T04:18:24.402Z,43.64
2018-09-17T04:19:24.407Z,43.54
2018-09-17T04:20:24.414Z,43.64
2018-09-17T04:21:24.421Z,43.16
2018-09-17T04:22:24.425Z,43.06
2018-09-17T04:23:24.432Z,43.06
2018-09-17T04:24:24.436Z,43.26
2018-09-17T04:25:24.446Z,43.26
2018-09-17T04:26:24.452Z,43.26
2018-09-17T04:27:24.458Z,43.26
2018-09-17T04:28:24.460Z,43.54
2018-09-17T04:29:24.475Z,43.45
2018-09-17T04:30:24.475Z,43.26
2018-09-17T04:31:24.485Z,43.16
2018-09-17T04:32:24.488Z,42.86
2018-09-17T04:33:24.503Z,42.86
2018-09-17T04:34:24.499Z,42.96
2018-09-17T04:35:24.505Z,43.35
2018-09-17T04:36:24.512Z,43.54
2018-09-17T04:37:24.508Z,43.26
2018-09-17T04:38:24.514Z,44.05
2018-09-17T04:39:24.525Z,43.08
2018-09-17T04:40:24.526Z,43.26
2018-09-17T04:41:24.534Z,43.37
2018-09-17T04:42:24.540Z,43.18
2018-09-17T04:43:24.545Z,43.27
2018-09-17T04:44:24.551Z,43.18
2018-09-17T04:45:24.556Z,43.27
2018-09-17T04:46:24.561Z,43.27
2018-09-17T04:47:24.590Z,43.27
2018-09-17T04:48:24.575Z,43.18
2018-09-17T04:49:24.581Z,43.08
2018-09-17T04:50:24.589Z,43.18
2018-09-17T04:51:24.600Z,42.89
2018-09-17T04:52:24.602Z,43.37
2018-09-17T04:53:24.606Z,43.08
2018-09-17T04:54:24.611Z,43.30
2018-09-17T04:55:24.621Z,43.18
2018-09-17T04:56:24.624Z,43.18
2018-09-17T04:57:24.649Z,45.14
2018-09-17T04:58:24.637Z,45.04
2018-09-17T04:59:24.644Z,44.37
2018-09-17T05:00:24.648Z,43.68
2018-09-17T05:01:24.659Z,43.59
2018-09-17T05:02:24.669Z,43.20
2018-09-17T05:03:24.674Z,42.91
2018-09-17T05:04:24.675Z,42.81
2018-09-17T05:05:24.682Z,43.10
2018-09-17T05:06:24.688Z,43.01
2018-09-17T05:07:24.809Z,42.71
2018-09-17T05:08:24.700Z,42.52
2018-09-17T05:09:24.707Z,42.43
2018-09-17T05:10:24.714Z,42.43
2018-09-17T05:11:24.722Z,42.74
2018-09-17T05:12:24.727Z,42.83
2018-09-17T05:13:24.858Z,42.81
2018-09-17T05:14:24.739Z,42.74
2018-09-17T05:15:24.747Z,42.54
2018-09-17T05:16:24.756Z,42.25
2018-09-17T05:17:24.760Z,42.44
2018-09-17T05:18:24.766Z,42.44
2018-09-17T05:19:24.783Z,42.54
2018-09-17T05:20:24.778Z,42.44
2018-09-17T05:21:24.789Z,42.74
2018-09-17T05:22:24.792Z,42.25
2018-09-17T05:23:24.800Z,42.35
2018-09-17T05:24:24.805Z,41.86
2018-09-17T05:25:24.814Z,42.25
2018-09-17T05:26:24.817Z,41.86
2018-09-17T05:27:24.826Z,41.86
2018-09-17T05:28:24.832Z,42.25
2018-09-17T05:29:24.838Z,42.05
2018-09-17T05:30:24.846Z,41.96
2018-09-17T05:31:24.852Z,42.15
2018-09-17T05:32:24.864Z,42.05
2018-09-17T05:33:24.865Z,42.35
2018-09-17T05:34:24.873Z,42.15
2018-09-17T05:35:24.878Z,42.15
2018-09-17T05:36:24.885Z,41.96
2018-09-17T05:37:24.893Z,41.98
2018-09-17T05:38:24.898Z,41.88
2018-09-17T05:39:24.905Z,41.88
2018-09-17T05:40:24.915Z,41.69
2018-09-17T05:41:24.917Z,41.96
2018-09-17T05:42:24.925Z,42.05
2018-09-17T05:43:24.932Z,41.88
2018-09-17T05:44:24.994Z,41.88
2018-09-17T05:45:24.949Z,41.69
2018-09-17T05:46:24.958Z,42.08
2018-09-17T05:47:24.959Z,41.88
2018-09-17T05:48:24.966Z,41.69
2018-09-17T05:49:24.972Z,41.69
2018-09-17T05:50:24.982Z,41.59
2018-09-17T05:51:24.987Z,41.69
2018-09-17T05:52:24.992Z,41.69
2018-09-17T05:53:24.999Z,41.49
2018-09-17T05:54:25.017Z,41.49
2018-09-17T05:55:25.018Z,41.30
2018-09-17T05:56:25.020Z,41.30
2018-09-17T05:57:25.028Z,41.39
2018-09-17T05:58:25.034Z,41.20
2018-09-17T05:59:25.071Z,41.30
2018-09-17T06:00:25.051Z,41.49
2018-09-17T06:01:25.058Z,41.30
2018-09-17T06:02:25.061Z,41.78
2018-09-17T06:03:25.080Z,41.30
2018-09-17T06:04:25.078Z,41.69
2018-09-17T06:05:25.150Z,41.30
2018-09-17T06:06:25.088Z,41.39
2018-09-17T06:07:25.096Z,41.01
2018-09-17T06:08:25.105Z,41.49
2018-09-17T06:09:25.106Z,41.39
2018-09-17T06:10:25.120Z,41.39
2018-09-17T06:11:25.121Z,41.30
2018-09-17T06:12:25.129Z,41.59
2018-09-17T06:13:25.139Z,41.59
2018-09-17T06:14:25.191Z,41.39
2018-09-17T06:15:25.150Z,41.22
2018-09-17T06:16:25.156Z,41.22
2018-09-17T06:17:25.229Z,41.30
2018-09-17T06:18:25.170Z,41.20
2018-09-17T06:19:25.188Z,41.10
2018-09-17T06:20:25.185Z,41.22
2018-09-17T06:21:25.190Z,40.91
2018-09-17T06:22:25.200Z,41.10
2018-09-17T06:23:25.264Z,41.20
2018-09-17T06:24:25.213Z,40.93
2018-09-17T06:25:25.220Z,41.22
2018-09-17T06:26:25.263Z,41.10
2018-09-17T06:27:25.234Z,41.13
2018-09-17T06:28:25.239Z,41.13
2018-09-17T06:29:25.247Z,41.30
2018-09-17T06:30:25.253Z,41.22
2018-09-17T06:31:25.264Z,40.93
2018-09-17T06:32:25.267Z,40.72
2018-09-17T06:33:25.274Z,41.13
2018-09-17T06:34:25.287Z,40.93
2018-09-17T06:35:25.288Z,40.93
2018-09-17T06:36:25.296Z,41.03
2018-09-17T06:37:25.302Z,41.22
2018-09-17T06:38:25.311Z,41.03
2018-09-17T06:39:25.316Z,40.93
2018-09-17T06:40:25.323Z,41.03
2018-09-17T06:41:25.335Z,41.13
2018-09-17T06:42:25.337Z,41.13
2018-09-17T06:43:25.346Z,40.54
2018-09-17T06:44:25.358Z,40.73
2018-09-17T06:45:25.359Z,40.54
2018-09-17T06:46:25.365Z,40.73
2018-09-17T06:47:25.372Z,40.83
2018-09-17T06:48:25.383Z,40.52
2018-09-17T06:49:25.389Z,40.54
2018-09-17T06:50:25.393Z,40.73
2018-09-17T06:51:25.444Z,40.54
2018-09-17T06:52:25.406Z,40.83
2018-09-17T06:53:25.414Z,40.34
2018-09-17T06:54:25.422Z,40.34
2018-09-17T06:55:25.430Z,40.34
2018-09-17T06:56:25.434Z,40.54
2018-09-17T06:57:25.445Z,40.34
2018-09-17T06:58:25.449Z,40.25
2018-09-17T06:59:25.458Z,40.34
2018-09-17T07:00:25.465Z,40.34
2018-09-17T07:01:25.471Z,40.34
2018-09-17T07:02:25.479Z,40.44
2018-09-17T07:03:25.485Z,40.34
2018-09-17T07:04:25.492Z,40.44
2018-09-17T07:05:25.502Z,40.54
2018-09-17T07:06:25.506Z,40.44
2018-09-17T07:07:25.517Z,40.44
2018-09-17T07:08:25.520Z,40.44
2018-09-17T07:09:25.525Z,40.44
2018-09-17T07:10:25.540Z,40.44
2018-09-17T07:11:25.545Z,40.15
2018-09-17T07:12:25.580Z,40.25
2018-09-17T07:13:25.556Z,40.34
2018-09-17T07:14:25.562Z,40.83
2018-09-17T07:15:25.572Z,40.73
2018-09-17T07:16:25.593Z,40.34
2018-09-17T07:17:25.582Z,41.22
2018-09-17T07:18:25.590Z,40.54
2018-09-17T07:19:25.702Z,40.34
2018-09-17T07:20:25.605Z,40.15
2018-09-17T07:21:25.612Z,40.54
2018-09-17T07:22:25.648Z,40.54
2018-09-17T07:23:25.628Z,40.54
2018-09-17T07:24:25.633Z,40.54
2018-09-17T07:25:25.645Z,40.54
2018-09-17T07:26:25.653Z,40.64
2018-09-17T07:27:25.667Z,40.83
2018-09-17T07:28:25.663Z,40.73
2018-09-17T07:29:25.710Z,40.64
2018-09-17T07:30:25.680Z,40.64
2018-09-17T07:31:25.685Z,40.73
2018-09-17T07:32:25.690Z,40.73
2018-09-17T07:33:25.696Z,40.73
2018-09-17T07:34:25.705Z,41.13
2018-09-17T07:35:25.711Z,40.54
2018-09-17T07:36:25.855Z,41.13
2018-09-17T07:37:25.724Z,40.93
2018-09-17T07:38:25.732Z,40.64
2018-09-17T07:39:25.740Z,40.64
2018-09-17T07:40:25.746Z,40.54
2018-09-17T07:41:25.752Z,40.54
2018-09-17T07:42:25.789Z,40.83
2018-09-17T07:43:25.768Z,40.93
2018-09-17T07:44:25.775Z,41.03
2018-09-17T07:45:25.782Z,40.93
2018-09-17T07:46:25.789Z,40.66
2018-09-17T07:47:25.796Z,40.85
2018-09-17T07:48:25.802Z,41.14
2018-09-17T07:49:25.810Z,41.05
2018-09-17T07:50:25.828Z,41.05
2018-09-17T07:51:25.831Z,41.44
2018-09-17T07:52:25.832Z,41.14
2018-09-17T07:53:25.846Z,41.24
2018-09-17T07:54:25.852Z,41.44
2018-09-17T07:55:25.854Z,41.63
2018-09-17T07:56:25.861Z,41.34
2018-09-17T07:57:25.869Z,41.63
2018-09-17T07:58:25.875Z,41.34
2018-09-17T07:59:25.891Z,41.53
2018-09-17T08:00:25.891Z,41.34
2018-09-17T08:01:25.901Z,41.53
2018-09-17T08:02:25.903Z,41.53
2018-09-17T08:03:25.908Z,41.53
2018-09-17T08:04:25.919Z,41.53
2018-09-17T08:05:25.925Z,41.53
2018-09-17T08:06:25.937Z,41.53
2018-09-17T08:07:25.944Z,41.93
2018-09-17T08:08:25.946Z,41.34
2018-09-17T08:09:25.954Z,41.53
2018-09-17T08:10:25.969Z,41.44
2018-09-17T08:11:25.974Z,41.73
2018-09-17T08:12:25.978Z,41.93
2018-09-17T08:13:25.990Z,41.73
2018-09-17T08:14:25.997Z,41.73
2018-09-17T08:15:26.003Z,42.21
2018-09-17T08:16:26.003Z,41.83
2018-09-17T08:17:26.015Z,41.83
2018-09-17T08:18:26.021Z,41.93
2018-09-17T08:19:26.028Z,41.83
2018-09-17T08:20:26.034Z,41.83
2018-09-17T08:21:26.040Z,41.93
2018-09-17T08:22:26.049Z,41.93
2018-09-17T08:23:26.056Z,41.73
2018-09-17T08:24:26.076Z,42.41
2018-09-17T08:25:26.120Z,42.21
2018-09-17T08:26:26.077Z,42.11
2018-09-17T08:27:26.089Z,41.93
2018-09-17T08:28:26.092Z,42.80
2018-09-17T08:29:26.100Z,42.50
2018-09-17T08:30:26.107Z,42.60
2018-09-17T08:31:26.196Z,42.41
2018-09-17T08:32:26.153Z,42.99
2018-09-17T08:33:26.129Z,42.50
2018-09-17T08:34:26.136Z,42.80
2018-09-17T08:35:26.150Z,42.60
2018-09-17T08:36:26.155Z,42.90
2018-09-17T08:37:26.158Z,42.60
2018-09-17T08:38:26.166Z,42.60
2018-09-17T08:39:26.172Z,42.99
2018-09-17T08:40:26.179Z,42.70
2018-09-17T08:41:26.187Z,42.80
2018-09-17T08:42:26.194Z,42.70
2018-09-17T08:43:26.200Z,42.60
2018-09-17T08:44:26.208Z,42.70
2018-09-17T08:45:26.219Z,42.80
2018-09-17T08:46:26.243Z,43.19
2018-09-17T08:47:26.232Z,43.19
2018-09-17T08:48:26.239Z,42.90
2018-09-17T08:49:26.245Z,43.29
2018-09-17T08:50:26.252Z,43.09
2018-09-17T08:51:26.263Z,43.19
2018-09-17T08:52:26.301Z,42.90
2018-09-17T08:53:26.277Z,43.09
2018-09-17T08:54:26.285Z,42.99
2018-09-17T08:55:26.292Z,43.01
2018-09-17T08:56:26.299Z,42.90
2018-09-17T08:57:26.304Z,43.01
2018-09-17T08:58:26.312Z,42.99
2018-09-17T08:59:26.320Z,42.90
2018-09-17T09:00:26.326Z,42.99
2018-09-17T09:01:26.335Z,43.21
2018-09-17T09:02:26.342Z,42.90
2018-09-17T09:03:26.349Z,43.70
2018-09-17T09:04:26.364Z,43.40
2018-09-17T09:05:26.363Z,43.60
2018-09-17T09:06:26.373Z,43.38
2018-09-17T09:07:26.379Z,43.60
2018-09-17T09:08:26.414Z,43.48
2018-09-17T09:09:26.399Z,43.40
2018-09-17T09:10:26.400Z,43.48
2018-09-17T09:11:26.411Z,43.21
2018-09-17T09:12:26.424Z,43.30
2018-09-17T09:13:26.430Z,43.19
2018-09-17T09:14:26.432Z,43.50
2018-09-17T09:15:26.438Z,43.40
2018-09-17T09:16:26.498Z,43.40
2018-09-17T09:17:26.486Z,43.50
2018-09-17T09:18:26.461Z,43.29
2018-09-17T09:19:26.470Z,43.29
2018-09-17T09:20:26.474Z,43.38
2018-09-17T09:21:26.482Z,43.48
2018-09-17T09:22:26.492Z,43.29
2018-09-17T09:23:26.497Z,43.50
2018-09-17T09:24:26.502Z,43.79
2018-09-17T09:25:26.512Z,43.58
2018-09-17T09:26:26.518Z,44.26
2018-09-17T09:27:26.528Z,43.96
2018-09-17T09:28:26.536Z,43.99
2018-09-17T09:29:26.546Z,43.87
2018-09-17T09:30:26.549Z,43.96
2018-09-17T09:31:26.555Z,44.06
2018-09-17T09:32:26.563Z,44.06
2018-09-17T09:33:26.572Z,43.96
2018-09-17T09:34:26.578Z,43.67
2018-09-17T09:35:26.590Z,43.96
2018-09-17T09:36:26.590Z,44.16
2018-09-17T09:37:26.603Z,43.67
2018-09-17T09:38:26.611Z,44.16
2018-09-17T09:39:26.616Z,44.16
2018-09-17T09:40:26.629Z,43.96
2018-09-17T09:41:26.713Z,43.99
2018-09-17T09:42:26.637Z,44.06
2018-09-17T09:43:26.645Z,44.18
2018-09-17T09:44:26.652Z,44.26
2018-09-17T09:45:26.659Z,44.18
2018-09-17T09:46:26.683Z,44.09
2018-09-17T09:47:26.674Z,44.16
2018-09-17T09:48:26.681Z,43.89
2018-09-17T09:49:26.689Z,43.77
2018-09-17T09:50:26.697Z,43.77
2018-09-17T09:51:26.707Z,43.67
2018-09-17T09:52:26.712Z,43.99
2018-09-17T09:53:26.719Z,43.96
2018-09-17T09:54:26.726Z,45.15
2018-09-17T09:55:26.733Z,44.35
2018-09-17T09:56:26.742Z,44.28
2018-09-17T09:57:26.749Z,44.48
2018-09-17T09:58:26.756Z,43.89
2018-09-17T09:59:26.787Z,44.35
2018-09-17T10:00:26.773Z,43.89
2018-09-17T10:01:26.776Z,43.89
2018-09-17T10:02:26.786Z,44.09
2018-09-17T10:03:26.797Z,43.70
2018-09-17T10:04:26.799Z,43.79
2018-09-17T10:05:26.808Z,43.89
2018-09-17T10:06:26.815Z,44.09
2018-09-17T10:07:26.823Z,43.70
2018-09-17T10:08:26.831Z,43.99
2018-09-17T10:09:26.842Z,44.09
2018-09-17T10:10:26.848Z,43.70
2018-09-17T10:11:26.860Z,44.18
2018-09-17T10:12:26.860Z,43.99
2018-09-17T10:13:26.867Z,43.79
2018-09-17T10:14:26.875Z,43.79
2018-09-17T10:15:26.883Z,43.89
2018-09-17T10:16:26.888Z,43.99
2018-09-17T10:17:26.897Z,43.89
2018-09-17T10:18:26.906Z,43.99
2018-09-17T10:19:26.930Z,44.18
2018-09-17T10:20:26.926Z,44.57
2018-09-17T10:21:26.933Z,43.99
2018-09-17T10:22:26.937Z,43.79
2018-09-17T10:23:26.944Z,43.87
2018-09-17T10:24:26.960Z,44.09
2018-09-17T10:25:26.957Z,43.99
2018-09-17T10:26:26.966Z,43.89
2018-09-17T10:27:26.973Z,43.99
2018-09-17T10:28:26.980Z,44.18
2018-09-17T10:29:26.989Z,43.89
2018-09-17T10:30:26.997Z,43.79
2018-09-17T10:31:27.004Z,43.99
2018-09-17T10:32:27.012Z,43.89
2018-09-17T10:33:27.018Z,43.99
2018-09-17T10:34:27.026Z,44.18
2018-09-17T10:35:27.033Z,43.99
2018-09-17T10:36:27.040Z,44.18
2018-09-17T10:37:27.048Z,43.99
2018-09-17T10:38:27.055Z,43.99
2018-09-17T10:39:27.098Z,44.18
2018-09-17T10:40:27.074Z,44.09
2018-09-17T10:41:27.082Z,43.99
2018-09-17T10:42:27.086Z,43.99
2018-09-17T10:43:27.097Z,43.89
2018-09-17T10:44:27.099Z,44.09
2018-09-17T10:45:27.109Z,43.99
2018-09-17T10:46:27.118Z,44.18
2018-09-17T10:47:27.124Z,43.87
2018-09-17T10:48:27.132Z,43.79
2018-09-17T10:49:27.138Z,43.89
2018-09-17T10:50:27.144Z,44.09
2018-09-17T10:51:27.156Z,43.89
2018-09-17T10:52:27.162Z,43.79
2018-09-17T10:53:27.170Z,43.21
2018-09-17T10:54:27.176Z,43.60
2018-09-17T10:55:27.186Z,43.30
2018-09-17T10:56:27.190Z,43.40
2018-09-17T10:57:27.260Z,43.50
2018-09-17T10:58:27.352Z,43.40
2018-09-17T10:59:27.213Z,43.21
2018-09-17T11:00:27.223Z,43.30
2018-09-17T11:01:27.229Z,43.67
2018-09-17T11:02:27.236Z,42.82
2018-09-17T11:03:27.244Z,43.11
2018-09-17T11:04:27.249Z,43.01
2018-09-17T11:05:27.257Z,43.01
2018-09-17T11:06:27.264Z,42.90
2018-09-17T11:07:27.314Z,43.01
2018-09-17T11:08:27.282Z,43.01
2018-09-17T11:09:27.288Z,43.11
2018-09-17T11:10:27.293Z,43.01
2018-09-17T11:11:27.304Z,43.21
2018-09-17T11:12:27.309Z,43.01
2018-09-17T11:13:27.317Z,43.21
2018-09-17T11:14:27.325Z,43.30
2018-09-17T11:15:27.335Z,42.72
2018-09-17T11:16:27.340Z,42.91
2018-09-17T11:17:27.424Z,42.53
2018-09-17T11:18:27.355Z,42.43
2018-09-17T11:19:27.365Z,42.53
2018-09-17T11:20:27.370Z,42.53
2018-09-17T11:21:27.385Z,42.43
2018-09-17T11:22:27.386Z,42.72
2018-09-17T11:23:27.442Z,42.91
2018-09-17T11:24:27.402Z,42.91
2018-09-17T11:25:27.413Z,42.82
2018-09-17T11:26:27.417Z,42.43
2018-09-17T11:27:27.435Z,42.43
2018-09-17T11:28:27.430Z,42.63
2018-09-17T11:29:27.441Z,42.72
2018-09-17T11:30:27.450Z,42.53
2018-09-17T11:31:27.518Z,42.43
2018-09-17T11:32:27.466Z,42.72
2018-09-17T11:33:27.480Z,42.43
2018-09-17T11:34:27.476Z,42.63
2018-09-17T11:35:27.485Z,42.24
2018-09-17T11:36:27.494Z,42.43
2018-09-17T11:37:27.498Z,41.94
2018-09-17T11:38:27.507Z,42.24
2018-09-17T11:39:27.516Z,42.24
2018-09-17T11:40:27.521Z,41.94
2018-09-17T11:41:27.529Z,41.85
2018-09-17T11:42:27.538Z,41.85
2018-09-17T11:43:27.545Z,41.75
2018-09-17T11:44:27.555Z,41.77
2018-09-17T11:45:27.560Z,42.04
2018-09-17T11:46:27.567Z,41.75
2018-09-17T11:47:27.576Z,41.75
2018-09-17T11:48:27.668Z,41.75
2018-09-17T11:49:27.590Z,41.65
2018-09-17T11:50:27.599Z,41.48
2018-09-17T11:51:27.618Z,41.65
2018-09-17T11:52:27.615Z,41.57
2018-09-17T11:53:27.621Z,41.65
2018-09-17T11:54:27.629Z,41.36
2018-09-17T11:55:27.645Z,41.28
2018-09-17T11:56:27.643Z,41.38
2018-09-17T11:57:27.653Z,41.19
2018-09-17T11:58:27.663Z,41.19
2018-09-17T11:59:27.667Z,41.48
2018-09-17T12:00:27.676Z,40.99
2018-09-17T12:01:27.682Z,41.16
2018-09-17T12:02:27.689Z,40.89
2018-09-17T12:03:27.700Z,40.97
2018-09-17T12:04:27.709Z,40.97
2018-09-17T12:05:27.713Z,41.09
2018-09-17T12:06:27.721Z,41.16
2018-09-17T12:07:27.735Z,40.60
2018-09-17T12:08:27.754Z,40.70
2018-09-17T12:09:27.744Z,40.70
2018-09-17T12:10:27.752Z,40.21
2018-09-17T12:11:27.759Z,40.31
2018-09-17T12:12:27.767Z,40.70
2018-09-17T12:13:27.775Z,40.41
2018-09-17T12:14:27.826Z,40.48
2018-09-17T12:15:27.790Z,40.70
2018-09-17T12:16:27.798Z,40.41
2018-09-17T12:17:27.805Z,40.21
2018-09-17T12:18:27.814Z,40.01
2018-09-17T12:19:27.820Z,40.19
2018-09-17T12:20:27.834Z,40.29
2018-09-17T12:21:27.835Z,40.01
2018-09-17T12:22:27.849Z,40.21
2018-09-17T12:23:27.856Z,40.21
2018-09-17T12:24:27.856Z,40.11
2018-09-17T12:25:27.869Z,39.92
2018-09-17T12:26:27.892Z,39.61
2018-09-17T12:27:27.882Z,39.43
2018-09-17T12:28:27.888Z,39.92
2018-09-17T12:29:27.897Z,39.82
2018-09-17T12:30:27.905Z,39.72
2018-09-17T12:31:27.923Z,39.43
2018-09-17T12:32:27.920Z,39.53
2018-09-17T12:33:27.993Z,39.53
2018-09-17T12:34:27.937Z,39.24
2018-09-17T12:35:27.948Z,39.14
2018-09-17T12:36:27.951Z,39.03
2018-09-17T12:37:27.960Z,39.04
2018-09-17T12:38:28.002Z,39.14
2018-09-17T12:39:27.975Z,39.12
2018-09-17T12:40:28.000Z,39.14
2018-09-17T12:41:27.989Z,39.24
2018-09-17T12:42:27.998Z,39.24
2018-09-17T12:43:28.012Z,39.24
2018-09-17T12:44:28.015Z,39.12
2018-09-17T12:45:28.021Z,39.22
2018-09-17T12:46:28.029Z,39.82
2018-09-17T12:47:28.038Z,40.48
2018-09-17T12:48:28.043Z,39.53
2018-09-17T12:49:28.051Z,38.83
2018-09-17T12:50:28.070Z,39.24
2018-09-17T12:51:28.068Z,39.24
2018-09-17T12:52:28.074Z,39.24